Dugspur, Virginia
Current Conditions -  °F | °C
As of 1:35 AM on Thursday 27 Nov 2014 (Local Time) from KHLX Reporting Station
Overcast Overcast  
Wind Chill: 30°   Ceiling: 7500
Heat Index: 34°   Visibility: 10mi
Dew Point: 32°   Wind: 5mph
Humidity: 92%   Direction: 220°SW
Pressure: 29.95"   Gusts: NA
Location:  36.82°N, 80.61°W
Report Text: KHLX 270635Z AUTO 22004KT 10SM SCT043 OVC075 01/00 A2995 RMK AO2 T00101001
Loading
Personal Weather Stations






























Interactive Weather Map New forecast layout! Learn more

10-Day Weather Forecast

Advertisements
Track Severe Weather on mobile